createdAt,value
2019-02-09T00:02:31.071Z,0.42
2019-02-09T00:05:21.040Z,0.69
2019-02-09T00:08:50.427Z,0.69
2019-02-09T00:11:39.964Z,0.73
2019-02-09T00:14:29.610Z,0.74
2019-02-09T00:17:19.624Z,0.80
2019-02-09T00:20:09.904Z,0.69
2019-02-09T00:23:18.512Z,0.82
2019-02-09T00:26:08.356Z,0.87
2019-02-09T00:28:58.184Z,0.84
2019-02-09T00:31:47.698Z,0.94
2019-02-09T00:34:37.460Z,0.96
2019-02-09T00:37:27.365Z,0.98
2019-02-09T00:40:17.400Z,0.80
2019-02-09T00:43:07.140Z,0.92
2019-02-09T00:45:56.856Z,0.92
2019-02-09T00:48:46.837Z,0.96
2019-02-09T00:51:36.594Z,0.94
2019-02-09T00:54:26.425Z,0.78
2019-02-09T00:57:16.405Z,0.79
2019-02-09T01:00:48.076Z,0.83
2019-02-09T01:03:37.579Z,0.64
2019-02-09T01:06:27.415Z,0.56
2019-02-09T01:09:36.165Z,0.64
2019-02-09T01:12:26.257Z,0.73
2019-02-09T01:15:15.602Z,0.48
2019-02-09T01:21:34.405Z,0.74
2019-02-09T01:24:24.084Z,0.70
2019-02-09T01:27:33.926Z,0.48
2019-02-09T01:30:24.576Z,0.67
2019-02-09T01:33:14.073Z,0.50
2019-02-09T01:36:22.568Z,0.63
2019-02-09T01:39:12.944Z,0.67
2019-02-09T01:42:03.063Z,0.37
2019-02-09T01:44:53.684Z,0.37
2019-02-09T01:47:43.469Z,0.46
2019-02-09T01:54:03.298Z,0.63
2019-02-09T01:56:53.235Z,0.60
2019-02-09T01:59:43.016Z,0.57
2019-02-09T02:05:41.202Z,0.17
2019-02-09T02:08:30.649Z,0.06
2019-02-09T02:11:20.648Z,0.17
2019-02-09T02:14:10.478Z,0.27
2019-02-09T02:17:00.055Z,0.19
2019-02-09T02:19:50.015Z,0.03
2019-02-09T02:22:39.681Z,0.12
2019-02-09T02:25:29.736Z,-0.23
2019-02-09T02:28:19.167Z,-0.38
2019-02-09T02:31:09.257Z,-0.35
2019-02-09T02:33:58.811Z,-0.29
2019-02-09T02:36:49.109Z,-0.19
2019-02-09T02:39:39.462Z,-0.13
2019-02-09T02:42:48.428Z,-0.08
2019-02-09T02:45:38.805Z,-0.08
2019-02-09T02:48:29.745Z,-0.34
2019-02-09T02:51:19.774Z,-0.58
2019-02-09T02:54:28.424Z,-0.49
2019-02-09T02:57:18.227Z,-0.49
2019-02-09T03:00:48.911Z,-0.49
2019-02-09T03:03:38.665Z,-0.47
2019-02-09T03:06:28.103Z,-0.29
2019-02-09T03:09:17.800Z,-0.15
2019-02-09T03:12:07.883Z,-0.02
2019-02-09T03:14:57.862Z,0.15
2019-02-09T03:17:48.262Z,0.21
2019-02-09T03:20:38.031Z,0.33
2019-02-09T03:23:27.845Z,0.41
2019-02-09T03:26:17.254Z,0.49
2019-02-09T03:29:06.754Z,0.51
2019-02-09T03:31:56.174Z,0.53
2019-02-09T03:34:46.426Z,0.51
2019-02-09T03:37:36.530Z,0.50
2019-02-09T03:43:42.131Z,0.47
2019-02-09T03:46:31.894Z,0.51
2019-02-09T03:49:22.377Z,0.24
2019-02-09T03:52:12.195Z,0.06
2019-02-09T03:55:01.936Z,0.06
2019-02-09T03:57:52.130Z,0.08
2019-02-09T04:00:41.640Z,0.17
2019-02-09T04:03:31.682Z,0.31
2019-02-09T04:09:50.978Z,0.39
2019-02-09T04:12:40.757Z,0.48
2019-02-09T04:15:30.209Z,0.56
2019-02-09T04:18:20.470Z,0.62
2019-02-09T04:21:09.990Z,0.61
2019-02-09T04:24:00.011Z,0.64
2019-02-09T04:26:50.280Z,0.67
2019-02-09T04:29:39.801Z,0.69
2019-02-09T04:32:29.211Z,0.75
2019-02-09T04:35:18.768Z,0.84
2019-02-09T04:38:08.606Z,0.85
2019-02-09T04:44:07.186Z,0.98
2019-02-09T04:46:57.167Z,1.04
2019-02-09T04:49:46.706Z,1.12
2019-02-09T04:52:36.818Z,1.18
2019-02-09T04:55:26.519Z,1.24
2019-02-09T04:58:16.894Z,1.30
2019-02-09T05:01:13.775Z,1.33
2019-02-09T05:03:58.234Z,1.36
2019-02-09T05:06:48.737Z,1.48
2019-02-09T05:09:38.409Z,1.40
2019-02-09T05:12:28.178Z,1.51
2019-02-09T05:15:57.372Z,1.59
2019-02-09T05:18:47.893Z,1.68
2019-02-09T05:21:37.312Z,1.73
2019-02-09T05:24:27.425Z,1.80
2019-02-09T05:27:16.617Z,1.91
2019-02-09T05:30:08.323Z,2.01
2019-02-09T05:33:37.425Z,2.01
2019-02-09T05:36:27.440Z,2.12
2019-02-09T05:39:16.763Z,2.21
2019-02-09T05:42:25.800Z,2.59
2019-02-09T05:48:50.507Z,2.80
2019-02-09T05:51:40.178Z,3.11
2019-02-09T05:54:30.180Z,3.34
2019-02-09T05:57:20.268Z,3.33
2019-02-09T06:00:25.474Z,3.17
2019-02-09T06:03:15.496Z,3.17
2019-02-09T06:06:44.872Z,3.15
2019-02-09T06:09:35.179Z,3.48
2019-02-09T06:12:25.402Z,3.48
2019-02-09T06:19:04.257Z,3.77
2019-02-09T06:21:54.207Z,3.77
2019-02-09T06:24:45.329Z,3.76
2019-02-09T06:27:35.591Z,3.75
2019-02-09T06:30:26.837Z,3.67
2019-02-09T06:33:14.423Z,3.64
2019-02-09T06:36:04.254Z,3.64
2019-02-09T06:39:13.670Z,3.74
2019-02-09T06:42:03.704Z,3.74
2019-02-09T06:44:53.386Z,3.78
2019-02-09T06:47:43.768Z,4.03
2019-02-09T06:50:34.158Z,4.22
2019-02-09T06:53:23.855Z,4.62
2019-02-09T06:56:13.428Z,4.81
2019-02-09T06:59:02.901Z,4.97
2019-02-09T07:01:52.706Z,5.10
2019-02-09T07:04:42.402Z,5.15
2019-02-09T07:07:32.143Z,5.12
2019-02-09T07:10:42.130Z,5.03
2019-02-09T07:13:31.710Z,4.98
2019-02-09T07:16:21.229Z,5.06
2019-02-09T07:19:10.738Z,5.23
2019-02-09T07:22:00.569Z,5.31
2019-02-09T07:24:50.471Z,5.40
2019-02-09T07:27:40.432Z,5.49
2019-02-09T07:30:30.358Z,5.62
2019-02-09T07:33:20.225Z,5.76
2019-02-09T07:36:09.781Z,5.65
2019-02-09T07:38:59.660Z,5.61
2019-02-09T07:41:49.231Z,5.71
2019-02-09T07:44:39.523Z,5.64
2019-02-09T07:47:29.510Z,5.78
2019-02-09T07:50:20.632Z,5.98
2019-02-09T07:53:10.328Z,6.02
2019-02-09T07:56:19.647Z,6.13
2019-02-09T07:59:09.103Z,6.25
2019-02-09T08:02:04.448Z,6.28
2019-02-09T08:05:10.175Z,6.37
2019-02-09T08:08:39.288Z,6.29
2019-02-09T08:11:29.887Z,6.38
2019-02-09T08:14:20.261Z,6.42
2019-02-09T08:17:10.156Z,6.37
2019-02-09T08:19:59.914Z,6.27
2019-02-09T08:22:49.921Z,6.24
2019-02-09T08:29:08.725Z,6.22
2019-02-09T08:31:58.974Z,6.22
2019-02-09T08:35:07.543Z,6.34
2019-02-09T08:37:57.337Z,6.52
2019-02-09T08:40:46.954Z,6.72
2019-02-09T08:43:36.774Z,6.78
2019-02-09T08:46:27.329Z,6.85
2019-02-09T08:49:17.624Z,6.78
2019-02-09T08:52:07.737Z,6.74
2019-02-09T08:54:58.165Z,6.75
2019-02-09T08:57:47.850Z,6.63
2019-02-09T09:00:56.634Z,6.63
2019-02-09T09:03:46.617Z,6.84
2019-02-09T09:06:36.624Z,6.77
2019-02-09T09:09:45.720Z,6.78
2019-02-09T09:12:35.241Z,6.79
2019-02-09T09:15:28.080Z,6.97
2019-02-09T09:18:18.344Z,7.06
2019-02-09T09:21:08.762Z,7.23
2019-02-09T09:23:58.245Z,7.35
2019-02-09T09:26:48.258Z,7.54
2019-02-09T09:29:38.390Z,7.74
2019-02-09T09:32:28.966Z,7.79
2019-02-09T09:35:20.055Z,7.71
2019-02-09T09:38:09.882Z,7.64
2019-02-09T09:41:00.018Z,7.54
2019-02-09T09:43:49.445Z,7.38
2019-02-09T09:46:58.030Z,7.32
2019-02-09T09:49:48.095Z,7.32
2019-02-09T09:52:38.002Z,7.36
2019-02-09T09:55:28.123Z,7.40
2019-02-09T09:58:18.283Z,7.39
2019-02-09T10:01:08.390Z,7.38
2019-02-09T10:03:57.462Z,7.48
2019-02-09T10:06:47.636Z,7.54
2019-02-09T10:09:37.903Z,7.56
2019-02-09T10:12:27.666Z,7.56
2019-02-09T10:15:57.663Z,7.67
2019-02-09T10:18:47.422Z,7.85
2019-02-09T10:21:36.842Z,8.07
2019-02-09T10:24:27.391Z,8.19
2019-02-09T10:27:16.997Z,8.35
2019-02-09T10:30:26.762Z,8.30
2019-02-09T10:33:17.729Z,8.35
2019-02-09T10:36:08.226Z,8.25
2019-02-09T10:38:59.131Z,8.44
2019-02-09T10:41:47.066Z,8.53
2019-02-09T10:44:36.481Z,8.54
2019-02-09T10:47:26.575Z,8.46
2019-02-09T10:50:57.177Z,8.36
2019-02-09T10:53:47.537Z,8.41
2019-02-09T10:56:37.297Z,8.48
2019-02-09T10:59:27.551Z,8.43
2019-02-09T11:02:16.488Z,8.34
2019-02-09T11:05:45.625Z,8.48
2019-02-09T11:08:35.403Z,8.52
2019-02-09T11:11:24.922Z,8.67
2019-02-09T11:14:15.218Z,8.81
2019-02-09T11:17:05.133Z,8.81
2019-02-09T11:19:55.381Z,8.96
2019-02-09T11:22:45.280Z,8.84
2019-02-09T11:25:34.766Z,8.79
2019-02-09T11:28:24.989Z,8.96
2019-02-09T11:31:14.421Z,9.17
2019-02-09T11:37:19.680Z,9.21
2019-02-09T11:40:09.966Z,9.37
2019-02-09T11:46:34.777Z,8.97
2019-02-09T11:49:24.244Z,8.84
2019-02-09T11:52:14.537Z,8.73
2019-02-09T11:55:02.435Z,8.62
2019-02-09T12:01:06.465Z,8.66
2019-02-09T12:03:55.889Z,8.86
2019-02-09T12:06:45.574Z,8.93
2019-02-09T12:09:35.362Z,9.05
2019-02-09T12:12:25.104Z,9.08
2019-02-09T12:15:35.458Z,9.26
2019-02-09T12:18:25.547Z,9.28
2019-02-09T12:21:15.038Z,9.05
2019-02-09T12:24:23.610Z,8.99
2019-02-09T12:27:13.414Z,9.06
2019-02-09T12:30:03.505Z,9.05
2019-02-09T12:32:53.399Z,9.09
2019-02-09T12:36:22.493Z,9.10
2019-02-09T12:39:12.249Z,9.19
2019-02-09T12:42:02.178Z,9.33
2019-02-09T12:44:52.190Z,9.23
2019-02-09T12:47:41.674Z,9.07
2019-02-09T12:51:11.633Z,8.92
2019-02-09T12:54:02.768Z,9.01
2019-02-09T12:56:53.305Z,9.20
2019-02-09T12:59:43.234Z,9.31
2019-02-09T13:02:33.042Z,9.41
2019-02-09T13:05:22.842Z,9.27
2019-02-09T13:08:12.405Z,9.19
2019-02-09T13:11:22.028Z,8.97
2019-02-09T13:14:12.086Z,8.93
2019-02-09T13:17:02.852Z,8.77
2019-02-09T13:19:52.856Z,8.68
2019-02-09T13:22:42.371Z,8.67
2019-02-09T13:25:51.859Z,8.61
2019-02-09T13:28:41.846Z,8.59
2019-02-09T13:31:31.554Z,8.64
2019-02-09T13:34:20.989Z,8.73
2019-02-09T13:37:10.978Z,8.88
2019-02-09T13:40:00.763Z,8.91
2019-02-09T13:46:19.896Z,8.95
2019-02-09T13:49:10.046Z,8.87
2019-02-09T13:51:59.819Z,8.86
2019-02-09T13:54:49.239Z,8.88
2019-02-09T13:57:38.967Z,8.83
2019-02-09T14:01:08.085Z,8.82
2019-02-09T14:03:57.864Z,8.81
2019-02-09T14:06:47.731Z,8.69
2019-02-09T14:09:37.530Z,8.73
2019-02-09T14:12:47.165Z,8.58
2019-02-09T14:15:37.055Z,8.49
2019-02-09T14:18:27.231Z,8.53
2019-02-09T14:21:16.937Z,8.50
2019-02-09T14:24:06.888Z,8.62
2019-02-09T14:26:57.079Z,8.62
2019-02-09T14:29:47.268Z,8.58
2019-02-09T14:32:37.284Z,8.48
2019-02-09T14:38:56.790Z,8.34
2019-02-09T14:41:46.735Z,8.35
2019-02-09T14:44:36.566Z,8.44
2019-02-09T14:50:35.540Z,8.42
2019-02-09T14:53:25.631Z,8.23
2019-02-09T14:56:15.340Z,8.28
2019-02-09T14:59:05.098Z,8.24
2019-02-09T15:01:55.730Z,8.19
2019-02-09T15:05:05.334Z,8.29
2019-02-09T15:07:55.170Z,8.20
2019-02-09T15:11:04.231Z,8.13
2019-02-09T15:13:56.624Z,8.18
2019-02-09T15:16:49.877Z,8.24
2019-02-09T15:19:41.404Z,8.10
2019-02-09T15:22:32.056Z,8.12
2019-02-09T15:25:22.002Z,8.08
2019-02-09T15:28:12.851Z,8.08
2019-02-09T15:31:02.369Z,8.08
2019-02-09T15:33:52.107Z,8.07
2019-02-09T15:36:43.129Z,8.04
2019-02-09T15:39:32.750Z,8.06
2019-02-09T15:42:22.275Z,7.99
2019-02-09T15:45:13.485Z,7.93
2019-02-09T15:48:03.338Z,7.94
2019-02-09T15:50:53.451Z,7.92
2019-02-09T15:53:43.404Z,7.84
2019-02-09T15:56:33.136Z,7.75
2019-02-09T15:59:23.251Z,7.67
2019-02-09T16:02:13.205Z,7.64
2019-02-09T16:05:22.341Z,7.64
2019-02-09T16:11:22.861Z,7.61
2019-02-09T16:14:12.891Z,7.52
2019-02-09T16:17:03.148Z,7.52
2019-02-09T16:19:53.445Z,7.67
2019-02-09T16:22:42.870Z,7.68
2019-02-09T16:25:32.670Z,7.72
2019-02-09T16:28:22.380Z,7.68
2019-02-09T16:31:12.009Z,7.62
2019-02-09T16:34:01.871Z,7.62
2019-02-09T16:36:52.196Z,7.55
2019-02-09T16:39:41.624Z,7.60
2019-02-09T16:42:31.057Z,7.53
2019-02-09T16:45:39.822Z,7.51
2019-02-09T16:48:29.987Z,7.49
2019-02-09T16:51:39.091Z,7.47
2019-02-09T16:54:29.107Z,7.31
2019-02-09T16:57:19.008Z,7.36
2019-02-09T17:00:11.021Z,7.38
2019-02-09T17:02:59.648Z,7.27
2019-02-09T17:05:49.998Z,7.33
2019-02-09T17:08:40.131Z,7.24
2019-02-09T17:11:30.421Z,7.19
2019-02-09T17:14:19.840Z,7.15
2019-02-09T17:17:09.621Z,7.07
2019-02-09T17:19:59.688Z,7.05
2019-02-09T17:22:49.845Z,7.01
2019-02-09T17:25:39.863Z,6.98
2019-02-09T17:28:29.765Z,6.92
2019-02-09T17:31:19.631Z,6.89
2019-02-09T17:34:09.689Z,6.86
2019-02-09T17:37:01.088Z,6.83
2019-02-09T17:39:50.907Z,6.74
2019-02-09T17:42:41.030Z,6.71
2019-02-09T17:45:37.027Z,6.65
2019-02-09T17:48:27.473Z,6.72
2019-02-09T17:51:18.653Z,6.74
2019-02-09T17:54:08.991Z,6.82
2019-02-09T17:56:58.944Z,6.82
2019-02-09T17:59:48.636Z,6.85
2019-02-09T18:02:38.171Z,6.74
2019-02-09T18:05:29.153Z,6.69
2019-02-09T18:08:18.692Z,6.70
2019-02-09T18:11:08.446Z,6.67
2019-02-09T18:13:58.393Z,6.67
2019-02-09T18:16:48.649Z,6.74
2019-02-09T18:19:38.635Z,6.75
2019-02-09T18:22:28.450Z,6.79
2019-02-09T18:25:18.834Z,6.64
2019-02-09T18:28:08.343Z,6.79
2019-02-09T18:30:57.815Z,6.73
2019-02-09T18:33:47.852Z,6.65
2019-02-09T18:36:37.636Z,6.66
2019-02-09T18:39:27.072Z,6.67
2019-02-09T18:42:17.172Z,6.74
2019-02-09T18:45:07.507Z,6.65
2019-02-09T18:47:57.925Z,6.67
2019-02-09T18:50:47.631Z,6.67
2019-02-09T18:53:37.483Z,6.69
2019-02-09T18:56:27.176Z,6.70
2019-02-09T18:59:16.878Z,6.69
2019-02-09T19:05:36.029Z,6.70
2019-02-09T19:08:25.778Z,6.71
2019-02-09T19:11:16.400Z,6.73
2019-02-09T19:14:06.069Z,6.78
2019-02-09T19:16:55.832Z,6.80
2019-02-09T19:19:45.621Z,6.78
2019-02-09T19:22:54.477Z,6.83
2019-02-09T19:25:44.416Z,6.73
2019-02-09T19:28:33.938Z,6.76
2019-02-09T19:31:24.228Z,6.82
2019-02-09T19:34:13.962Z,6.80
2019-02-09T19:37:04.074Z,6.92
2019-02-09T19:39:53.995Z,6.87
2019-02-09T19:43:23.594Z,6.77
2019-02-09T19:46:14.087Z,6.76
2019-02-09T19:49:04.294Z,6.67
2019-02-09T19:51:54.423Z,6.62
2019-02-09T19:54:44.998Z,6.53
2019-02-09T19:57:34.859Z,6.46
2019-02-09T20:00:29.762Z,6.62
2019-02-09T20:03:19.280Z,6.61
2019-02-09T20:06:08.858Z,6.55
2019-02-09T20:08:58.321Z,6.64
2019-02-09T20:11:48.161Z,6.70
2019-02-09T20:14:38.189Z,6.61
2019-02-09T20:17:27.618Z,6.68
2019-02-09T20:23:32.553Z,6.62
2019-02-09T20:26:22.292Z,6.59
2019-02-09T20:29:12.111Z,6.49
2019-02-09T20:34:56.993Z,6.57
2019-02-09T20:37:46.573Z,6.63
2019-02-09T20:40:57.587Z,6.73
2019-02-09T20:43:46.989Z,6.73
2019-02-09T20:46:36.745Z,6.63
2019-02-09T20:49:45.710Z,6.59
2019-02-09T20:52:54.565Z,6.77
2019-02-09T20:55:44.453Z,6.72
2019-02-09T20:58:34.761Z,6.72
2019-02-09T21:01:24.831Z,6.67
2019-02-09T21:04:14.351Z,6.65
2019-02-09T21:07:04.420Z,6.65
2019-02-09T21:09:54.375Z,6.59
2019-02-09T21:12:44.482Z,6.65
2019-02-09T21:19:03.267Z,6.56
2019-02-09T21:21:52.708Z,6.50
2019-02-09T21:24:42.396Z,6.41
2019-02-09T21:27:32.058Z,6.44
2019-02-09T21:30:22.674Z,6.40
2019-02-09T21:33:12.184Z,6.34
2019-02-09T21:36:01.624Z,6.31
2019-02-09T21:38:51.588Z,6.32
2019-02-09T21:41:41.399Z,6.28
2019-02-09T21:44:31.050Z,6.36
2019-02-09T21:47:20.742Z,6.39
2019-02-09T21:50:30.747Z,6.35
2019-02-09T21:53:20.191Z,6.40
2019-02-09T21:56:10.110Z,6.40
2019-02-09T21:58:59.930Z,6.31
2019-02-09T22:01:50.713Z,6.29
2019-02-09T22:04:40.509Z,6.25
2019-02-09T22:07:30.478Z,6.39
2019-02-09T22:10:29.050Z,6.46
2019-02-09T22:16:42.687Z,6.45
2019-02-09T22:19:32.645Z,6.57
2019-02-09T22:22:22.348Z,6.55
2019-02-09T22:25:15.056Z,6.66
2019-02-09T22:28:05.320Z,6.66
2019-02-09T22:30:55.812Z,6.60
2019-02-09T22:33:45.515Z,6.65
2019-02-09T22:36:37.302Z,6.55
2019-02-09T22:39:26.372Z,6.44
2019-02-09T22:42:16.111Z,6.40
2019-02-09T22:45:45.929Z,6.33
2019-02-09T22:48:54.699Z,6.25
2019-02-09T22:51:44.562Z,6.27
2019-02-09T22:54:34.295Z,6.17
2019-02-09T22:57:24.712Z,6.17
2019-02-09T23:04:39.691Z,6.13
2019-02-09T23:07:31.689Z,5.86
2019-02-09T23:10:21.118Z,5.72
2019-02-09T23:13:10.623Z,5.30
2019-02-09T23:16:00.971Z,5.24
2019-02-09T23:18:50.464Z,5.08
2019-02-09T23:21:39.893Z,4.95
2019-02-09T23:24:29.675Z,5.00
2019-02-09T23:27:19.098Z,5.04
2019-02-09T23:30:11.722Z,4.98
2019-02-09T23:33:01.493Z,5.03
2019-02-09T23:35:51.003Z,4.90
2019-02-09T23:38:40.671Z,4.76
2019-02-09T23:41:30.422Z,4.77
2019-02-09T23:44:19.878Z,4.80
2019-02-09T23:47:09.963Z,4.79
2019-02-09T23:50:40.280Z,4.78
2019-02-09T23:56:58.714Z,4.69
2019-02-09T23:59:48.420Z,4.67
